sensor_id;sensor_type;location;lat;lon;timestamp;P1;durP1;ratioP1;P2;durP2;ratioP2
68196;SDS011;55019;49.382;11.358;2023-05-10T00:00:33;2.90;;;1.85;;
68196;SDS011;55019;49.382;11.358;2023-05-10T00:02:59;2.92;;;2.08;;
68196;SDS011;55019;49.382;11.358;2023-05-10T00:05:25;2.03;;;1.65;;
68196;SDS011;55019;49.382;11.358;2023-05-10T00:07:51;2.72;;;1.95;;
68196;SDS011;55019;49.382;11.358;2023-05-10T00:10:16;2.97;;;1.98;;
68196;SDS011;55019;49.382;11.358;2023-05-10T00:12:42;2.08;;;1.75;;
68196;SDS011;55019;49.382;11.358;2023-05-10T00:15:08;2.47;;;1.90;;
68196;SDS011;55019;49.382;11.358;2023-05-10T00:17:34;4.03;;;2.10;;
68196;SDS011;55019;49.382;11.358;2023-05-10T00:20:00;2.95;;;2.05;;
68196;SDS011;55019;49.382;11.358;2023-05-10T00:22:26;3.80;;;1.92;;
68196;SDS011;55019;49.382;11.358;2023-05-10T00:24:51;5.13;;;2.42;;
68196;SDS011;55019;49.382;11.358;2023-05-10T00:27:17;3.95;;;2.17;;
68196;SDS011;55019;49.382;11.358;2023-05-10T00:29:43;3.05;;;2.05;;
68196;SDS011;55019;49.382;11.358;2023-05-10T00:32:08;2.65;;;2.05;;
68196;SDS011;55019;49.382;11.358;2023-05-10T00:34:34;3.45;;;2.38;;
68196;SDS011;55019;49.382;11.358;2023-05-10T00:37:00;4.05;;;2.33;;
68196;SDS011;55019;49.382;11.358;2023-05-10T00:39:26;3.67;;;2.58;;
68196;SDS011;55019;49.382;11.358;2023-05-10T00:41:53;2.97;;;2.40;;
68196;SDS011;55019;49.382;11.358;2023-05-10T00:44:20;2.85;;;2.17;;
68196;SDS011;55019;49.382;11.358;2023-05-10T00:46:46;2.60;;;2.00;;
68196;SDS011;55019;49.382;11.358;2023-05-10T00:49:13;2.55;;;2.20;;
68196;SDS011;55019;49.382;11.358;2023-05-10T00:51:39;2.80;;;2.33;;
68196;SDS011;55019;49.382;11.358;2023-05-10T00:54:05;3.75;;;2.45;;
68196;SDS011;55019;49.382;11.358;2023-05-10T00:56:30;3.05;;;2.22;;
68196;SDS011;55019;49.382;11.358;2023-05-10T00:58:56;2.50;;;2.17;;
68196;SDS011;55019;49.382;11.358;2023-05-10T01:01:22;2.55;;;1.90;;
68196;SDS011;55019;49.382;11.358;2023-05-10T01:03:48;3.80;;;2.15;;
68196;SDS011;55019;49.382;11.358;2023-05-10T01:06:14;3.03;;;2.00;;
68196;SDS011;55019;49.382;11.358;2023-05-10T01:08:40;3.13;;;2.13;;
68196;SDS011;55019;49.382;11.358;2023-05-10T01:11:06;3.22;;;2.30;;
68196;SDS011;55019;49.382;11.358;2023-05-10T01:13:33;3.03;;;2.20;;
68196;SDS011;55019;49.382;11.358;2023-05-10T01:16:02;2.53;;;2.10;;
68196;SDS011;55019;49.382;11.358;2023-05-10T01:18:33;3.67;;;2.15;;
68196;SDS011;55019;49.382;11.358;2023-05-10T01:21:48;3.22;;;2.03;;
68196;SDS011;55019;49.382;11.358;2023-05-10T01:37:41;3.22;;;2.58;;
68196;SDS011;55019;49.382;11.358;2023-05-10T01:40:23;2.70;;;2.22;;
68196;SDS011;55019;49.382;11.358;2023-05-10T01:42:59;3.90;;;2.45;;
68196;SDS011;55019;49.382;11.358;2023-05-10T01:45:39;4.75;;;2.90;;
68196;SDS011;55019;49.382;11.358;2023-05-10T01:48:12;3.92;;;2.80;;
68196;SDS011;55019;49.382;11.358;2023-05-10T01:50:41;4.20;;;2.90;;
68196;SDS011;55019;49.382;11.358;2023-05-10T01:53:10;6.43;;;3.33;;
68196;SDS011;55019;49.382;11.358;2023-05-10T01:55:47;4.70;;;3.35;;
68196;SDS011;55019;49.382;11.358;2023-05-10T01:58:37;4.80;;;3.20;;
68196;SDS011;55019;49.382;11.358;2023-05-10T02:01:05;5.85;;;3.28;;
68196;SDS011;55019;49.382;11.358;2023-05-10T02:03:32;6.57;;;3.05;;
68196;SDS011;55019;49.382;11.358;2023-05-10T02:06:02;6.55;;;3.20;;
68196;SDS011;55019;49.382;11.358;2023-05-10T02:08:30;4.70;;;3.30;;
68196;SDS011;55019;49.382;11.358;2023-05-10T02:10:56;4.38;;;3.03;;
68196;SDS011;55019;49.382;11.358;2023-05-10T02:13:24;6.50;;;3.72;;
68196;SDS011;55019;49.382;11.358;2023-05-10T02:15:51;5.18;;;3.20;;
68196;SDS011;55019;49.382;11.358;2023-05-10T02:18:18;6.18;;;3.42;;
68196;SDS011;55019;49.382;11.358;2023-05-10T02:20:45;4.55;;;3.70;;
68196;SDS011;55019;49.382;11.358;2023-05-10T02:23:12;6.05;;;3.60;;
68196;SDS011;55019;49.382;11.358;2023-05-10T02:25:39;4.90;;;3.40;;
68196;SDS011;55019;49.382;11.358;2023-05-10T02:30:34;5.10;;;3.60;;
68196;SDS011;55019;49.382;11.358;2023-05-10T02:33:01;5.18;;;3.50;;
68196;SDS011;55019;49.382;11.358;2023-05-10T02:35:29;4.28;;;3.10;;
68196;SDS011;55019;49.382;11.358;2023-05-10T02:37:56;6.10;;;3.92;;
68196;SDS011;55019;49.382;11.358;2023-05-10T02:40:23;5.72;;;3.90;;
68196;SDS011;55019;49.382;11.358;2023-05-10T02:42:52;5.32;;;3.35;;
68196;SDS011;55019;49.382;11.358;2023-05-10T02:45:23;4.63;;;3.03;;
68196;SDS011;55019;49.382;11.358;2023-05-10T02:47:53;6.10;;;3.60;;
68196;SDS011;55019;49.382;11.358;2023-05-10T02:50:19;6.07;;;3.38;;
68196;SDS011;55019;49.382;11.358;2023-05-10T02:52:47;4.75;;;3.10;;
68196;SDS011;55019;49.382;11.358;2023-05-10T02:55:15;6.03;;;3.97;;
68196;SDS011;55019;49.382;11.358;2023-05-10T02:57:51;5.78;;;3.15;;
68196;SDS011;55019;49.382;11.358;2023-05-10T03:00:19;5.68;;;3.38;;
68196;SDS011;55019;49.382;11.358;2023-05-10T03:02:45;5.55;;;3.67;;
68196;SDS011;55019;49.382;11.358;2023-05-10T03:05:11;4.10;;;3.05;;
68196;SDS011;55019;49.382;11.358;2023-05-10T03:07:37;5.60;;;3.45;;
68196;SDS011;55019;49.382;11.358;2023-05-10T03:10:02;3.95;;;2.92;;
68196;SDS011;55019;49.382;11.358;2023-05-10T03:15:03;5.78;;;3.17;;
68196;SDS011;55019;49.382;11.358;2023-05-10T03:20:26;4.38;;;2.72;;
68196;SDS011;55019;49.382;11.358;2023-05-10T03:23:09;4.47;;;2.95;;
68196;SDS011;55019;49.382;11.358;2023-05-10T03:25:39;5.22;;;3.33;;
68196;SDS011;55019;49.382;11.358;2023-05-10T03:28:06;7.20;;;3.22;;
68196;SDS011;55019;49.382;11.358;2023-05-10T03:30:34;4.78;;;3.13;;
68196;SDS011;55019;49.382;11.358;2023-05-10T03:33:04;4.88;;;3.20;;
68196;SDS011;55019;49.382;11.358;2023-05-10T03:35:38;4.75;;;3.03;;
68196;SDS011;55019;49.382;11.358;2023-05-10T03:38:05;5.00;;;3.38;;
68196;SDS011;55019;49.382;11.358;2023-05-10T03:40:30;6.32;;;3.60;;
68196;SDS011;55019;49.382;11.358;2023-05-10T03:42:58;7.70;;;3.22;;
68196;SDS011;55019;49.382;11.358;2023-05-10T03:45:24;5.10;;;3.25;;
68196;SDS011;55019;49.382;11.358;2023-05-10T03:47:50;7.15;;;3.78;;
68196;SDS011;55019;49.382;11.358;2023-05-10T03:50:16;3.05;;;2.30;;
68196;SDS011;55019;49.382;11.358;2023-05-10T03:52:41;3.03;;;2.17;;
68196;SDS011;55019;49.382;11.358;2023-05-10T03:55:07;3.15;;;2.30;;
68196;SDS011;55019;49.382;11.358;2023-05-10T03:57:33;3.05;;;2.00;;
68196;SDS011;55019;49.382;11.358;2023-05-10T03:59:59;5.30;;;1.95;;
68196;SDS011;55019;49.382;11.358;2023-05-10T04:02:25;2.85;;;1.80;;
68196;SDS011;55019;49.382;11.358;2023-05-10T04:04:52;3.03;;;1.48;;
68196;SDS011;55019;49.382;11.358;2023-05-10T04:07:18;2.80;;;1.30;;
68196;SDS011;55019;49.382;11.358;2023-05-10T04:09:43;1.98;;;1.40;;
68196;SDS011;55019;49.382;11.358;2023-05-10T04:12:09;2.00;;;0.90;;
68196;SDS011;55019;49.382;11.358;2023-05-10T04:14:35;2.03;;;1.48;;
68196;SDS011;55019;49.382;11.358;2023-05-10T04:17:01;2.30;;;1.55;;
68196;SDS011;55019;49.382;11.358;2023-05-10T04:19:30;3.20;;;1.60;;
68196;SDS011;55019;49.382;11.358;2023-05-10T04:21:56;3.67;;;1.60;;
68196;SDS011;55019;49.382;11.358;2023-05-10T04:24:21;1.30;;;1.10;;
68196;SDS011;55019;49.382;11.358;2023-05-10T04:26:47;2.72;;;1.73;;
68196;SDS011;55019;49.382;11.358;2023-05-10T04:29:13;2.90;;;1.05;;
68196;SDS011;55019;49.382;11.358;2023-05-10T04:31:38;3.40;;;1.30;;
68196;SDS011;55019;49.382;11.358;2023-05-10T04:34:04;1.88;;;1.23;;
68196;SDS011;55019;49.382;11.358;2023-05-10T04:36:30;2.17;;;1.15;;
68196;SDS011;55019;49.382;11.358;2023-05-10T04:38:57;1.95;;;0.80;;
68196;SDS011;55019;49.382;11.358;2023-05-10T04:41:23;1.60;;;0.95;;
68196;SDS011;55019;49.382;11.358;2023-05-10T04:43:50;2.42;;;1.10;;
68196;SDS011;55019;49.382;11.358;2023-05-10T04:46:16;1.38;;;0.70;;
68196;SDS011;55019;49.382;11.358;2023-05-10T04:48:42;1.38;;;0.90;;
68196;SDS011;55019;49.382;11.358;2023-05-10T04:51:07;1.10;;;0.65;;
68196;SDS011;55019;49.382;11.358;2023-05-10T04:53:33;0.85;;;0.47;;
68196;SDS011;55019;49.382;11.358;2023-05-10T04:55:59;1.55;;;0.55;;
68196;SDS011;55019;49.382;11.358;2023-05-10T04:58:24;0.65;;;0.40;;
68196;SDS011;55019;49.382;11.358;2023-05-10T05:00:50;0.38;;;0.30;;
68196;SDS011;55019;49.382;11.358;2023-05-10T05:03:17;0.80;;;0.30;;
68196;SDS011;55019;49.382;11.358;2023-05-10T05:05:43;0.98;;;0.40;;
68196;SDS011;55019;49.382;11.358;2023-05-10T05:08:09;0.20;;;0.20;;
68196;SDS011;55019;49.382;11.358;2023-05-10T05:10:35;1.33;;;0.25;;
68196;SDS011;55019;49.382;11.358;2023-05-10T05:13:01;0.30;;;0.30;;
68196;SDS011;55019;49.382;11.358;2023-05-10T05:15:26;0.55;;;0.22;;
68196;SDS011;55019;49.382;11.358;2023-05-10T05:17:52;0.88;;;0.30;;
68196;SDS011;55019;49.382;11.358;2023-05-10T05:20:18;0.40;;;0.30;;
68196;SDS011;55019;49.382;11.358;2023-05-10T05:22:44;0.40;;;0.30;;
68196;SDS011;55019;49.382;11.358;2023-05-10T05:25:10;1.83;;;0.32;;
68196;SDS011;55019;49.382;11.358;2023-05-10T05:27:37;0.82;;;0.20;;
68196;SDS011;55019;49.382;11.358;2023-05-10T05:30:02;1.85;;;0.40;;
68196;SDS011;55019;49.382;11.358;2023-05-10T05:32:29;0.55;;;0.17;;
68196;SDS011;55019;49.382;11.358;2023-05-10T05:34:55;0.30;;;0.20;;
68196;SDS011;55019;49.382;11.358;2023-05-10T05:37:21;0.85;;;0.30;;
68196;SDS011;55019;49.382;11.358;2023-05-10T05:39:47;0.22;;;0.15;;
68196;SDS011;55019;49.382;11.358;2023-05-10T05:42:13;0.40;;;0.20;;
68196;SDS011;55019;49.382;11.358;2023-05-10T05:44:39;0.98;;;0.30;;
68196;SDS011;55019;49.382;11.358;2023-05-10T05:47:05;0.70;;;0.20;;
68196;SDS011;55019;49.382;11.358;2023-05-10T05:49:31;0.20;;;0.20;;
68196;SDS011;55019;49.382;11.358;2023-05-10T05:52:03;0.90;;;0.30;;
68196;SDS011;55019;49.382;11.358;2023-05-10T05:54:29;0.47;;;0.25;;
68196;SDS011;55019;49.382;11.358;2023-05-10T05:57:00;0.50;;;0.30;;
68196;SDS011;55019;49.382;11.358;2023-05-10T05:59:26;0.28;;;0.20;;
68196;SDS011;55019;49.382;11.358;2023-05-10T06:01:51;1.38;;;0.30;;
68196;SDS011;55019;49.382;11.358;2023-05-10T06:04:18;0.20;;;0.10;;
68196;SDS011;55019;49.382;11.358;2023-05-10T06:06:43;2.05;;;1.13;;
68196;SDS011;55019;49.382;11.358;2023-05-10T06:09:09;0.47;;;0.10;;
68196;SDS011;55019;49.382;11.358;2023-05-10T06:11:35;0.20;;;0.20;;
68196;SDS011;55019;49.382;11.358;2023-05-10T06:14:03;0.47;;;0.28;;
68196;SDS011;55019;49.382;11.358;2023-05-10T06:16:30;0.20;;;0.10;;
68196;SDS011;55019;49.382;11.358;2023-05-10T06:18:56;0.40;;;0.10;;
68196;SDS011;55019;49.382;11.358;2023-05-10T06:21:22;0.47;;;0.17;;
68196;SDS011;55019;49.382;11.358;2023-05-10T06:23:47;0.30;;;0.30;;
68196;SDS011;55019;49.382;11.358;2023-05-10T06:26:13;0.20;;;0.20;;
68196;SDS011;55019;49.382;11.358;2023-05-10T06:28:39;0.43;;;0.20;;
68196;SDS011;55019;49.382;11.358;2023-05-10T06:31:05;1.95;;;0.30;;
68196;SDS011;55019;49.382;11.358;2023-05-10T06:33:32;0.20;;;0.17;;
68196;SDS011;55019;49.382;11.358;2023-05-10T06:35:58;0.55;;;0.25;;
68196;SDS011;55019;49.382;11.358;2023-05-10T06:38:24;1.00;;;0.50;;
68196;SDS011;55019;49.382;11.358;2023-05-10T06:40:49;0.45;;;0.30;;
68196;SDS011;55019;49.382;11.358;2023-05-10T06:43:15;0.65;;;0.30;;
68196;SDS011;55019;49.382;11.358;2023-05-10T06:45:41;1.17;;;0.50;;
68196;SDS011;55019;49.382;11.358;2023-05-10T06:48:07;1.05;;;0.55;;
68196;SDS011;55019;49.382;11.358;2023-05-10T06:50:33;0.50;;;0.40;;
68196;SDS011;55019;49.382;11.358;2023-05-10T06:52:59;0.38;;;0.38;;
68196;SDS011;55019;49.382;11.358;2023-05-10T06:55:25;1.00;;;0.50;;
68196;SDS011;55019;49.382;11.358;2023-05-10T06:57:51;0.85;;;0.50;;
68196;SDS011;55019;49.382;11.358;2023-05-10T07:00:18;0.40;;;0.30;;
68196;SDS011;55019;49.382;11.358;2023-05-10T07:02:44;0.80;;;0.60;;
68196;SDS011;55019;49.382;11.358;2023-05-10T07:05:10;0.95;;;0.38;;
68196;SDS011;55019;49.382;11.358;2023-05-10T07:07:36;0.80;;;0.30;;
68196;SDS011;55019;49.382;11.358;2023-05-10T07:10:02;0.60;;;0.43;;
68196;SDS011;55019;49.382;11.358;2023-05-10T07:12:28;1.35;;;0.55;;
68196;SDS011;55019;49.382;11.358;2023-05-10T07:14:54;0.32;;;0.30;;
68196;SDS011;55019;49.382;11.358;2023-05-10T07:17:19;0.77;;;0.50;;
68196;SDS011;55019;49.382;11.358;2023-05-10T07:19:45;0.55;;;0.30;;
68196;SDS011;55019;49.382;11.358;2023-05-10T07:22:11;0.40;;;0.40;;
68196;SDS011;55019;49.382;11.358;2023-05-10T07:24:36;0.30;;;0.30;;
68196;SDS011;55019;49.382;11.358;2023-05-10T07:27:02;1.75;;;0.50;;
68196;SDS011;55019;49.382;11.358;2023-05-10T07:29:28;0.90;;;0.40;;
68196;SDS011;55019;49.382;11.358;2023-05-10T07:31:54;0.60;;;0.40;;
68196;SDS011;55019;49.382;11.358;2023-05-10T07:34:20;0.45;;;0.45;;
68196;SDS011;55019;49.382;11.358;2023-05-10T07:36:46;0.45;;;0.35;;
68196;SDS011;55019;49.382;11.358;2023-05-10T07:39:11;0.82;;;0.32;;
68196;SDS011;55019;49.382;11.358;2023-05-10T07:41:37;1.08;;;0.47;;
68196;SDS011;55019;49.382;11.358;2023-05-10T07:44:04;0.60;;;0.47;;
68196;SDS011;55019;49.382;11.358;2023-05-10T07:46:30;1.38;;;0.55;;
68196;SDS011;55019;49.382;11.358;2023-05-10T07:48:55;0.60;;;0.43;;
68196;SDS011;55019;49.382;11.358;2023-05-10T07:51:21;0.40;;;0.40;;
68196;SDS011;55019;49.382;11.358;2023-05-10T07:53:47;0.60;;;0.20;;
68196;SDS011;55019;49.382;11.358;2023-05-10T07:56:23;0.45;;;0.32;;
68196;SDS011;55019;49.382;11.358;2023-05-10T07:58:52;0.22;;;0.20;;
68196;SDS011;55019;49.382;11.358;2023-05-10T08:01:19;0.73;;;0.45;;
68196;SDS011;55019;49.382;11.358;2023-05-10T08:03:45;0.60;;;0.25;;
68196;SDS011;55019;49.382;11.358;2023-05-10T08:06:11;0.77;;;0.30;;
68196;SDS011;55019;49.382;11.358;2023-05-10T08:08:37;0.45;;;0.35;;
68196;SDS011;55019;49.382;11.358;2023-05-10T08:11:03;0.73;;;0.30;;
68196;SDS011;55019;49.382;11.358;2023-05-10T08:13:29;0.50;;;0.30;;
68196;SDS011;55019;49.382;11.358;2023-05-10T08:15:54;1.40;;;0.20;;
68196;SDS011;55019;49.382;11.358;2023-05-10T08:18:20;0.70;;;0.20;;
68196;SDS011;55019;49.382;11.358;2023-05-10T08:20:46;0.80;;;0.30;;
68196;SDS011;55019;49.382;11.358;2023-05-10T08:23:12;0.75;;;0.20;;
68196;SDS011;55019;49.382;11.358;2023-05-10T08:25:38;0.95;;;0.30;;
68196;SDS011;55019;49.382;11.358;2023-05-10T08:28:04;0.50;;;0.20;;
68196;SDS011;55019;49.382;11.358;2023-05-10T08:30:30;1.00;;;0.40;;
68196;SDS011;55019;49.382;11.358;2023-05-10T08:32:55;0.47;;;0.45;;
68196;SDS011;55019;49.382;11.358;2023-05-10T08:35:21;0.38;;;0.38;;
68196;SDS011;55019;49.382;11.358;2023-05-10T08:37:47;0.90;;;0.20;;
68196;SDS011;55019;49.382;11.358;2023-05-10T08:40:13;0.80;;;0.35;;
68196;SDS011;55019;49.382;11.358;2023-05-10T08:42:40;0.40;;;0.30;;
68196;SDS011;55019;49.382;11.358;2023-05-10T08:47:41;2.50;;;0.73;;
68196;SDS011;55019;49.382;11.358;2023-05-10T08:50:07;0.63;;;0.45;;
68196;SDS011;55019;49.382;11.358;2023-05-10T08:52:33;0.75;;;0.50;;
68196;SDS011;55019;49.382;11.358;2023-05-10T08:55:04;0.40;;;0.30;;
68196;SDS011;55019;49.382;11.358;2023-05-10T08:57:30;0.30;;;0.30;;
68196;SDS011;55019;49.382;11.358;2023-05-10T08:59:55;1.60;;;0.50;;
68196;SDS011;55019;49.382;11.358;2023-05-10T09:02:21;1.98;;;0.60;;
68196;SDS011;55019;49.382;11.358;2023-05-10T09:07:14;1.25;;;0.57;;
68196;SDS011;55019;49.382;11.358;2023-05-10T09:09:41;1.25;;;0.40;;
68196;SDS011;55019;49.382;11.358;2023-05-10T09:12:07;0.45;;;0.45;;
68196;SDS011;55019;49.382;11.358;2023-05-10T09:14:36;0.50;;;0.50;;
68196;SDS011;55019;49.382;11.358;2023-05-10T09:17:03;0.63;;;0.57;;
68196;SDS011;55019;49.382;11.358;2023-05-10T09:19:29;0.65;;;0.60;;
68196;SDS011;55019;49.382;11.358;2023-05-10T09:21:55;0.60;;;0.60;;
68196;SDS011;55019;49.382;11.358;2023-05-10T09:24:24;0.88;;;0.70;;
68196;SDS011;55019;49.382;11.358;2023-05-10T09:26:51;0.50;;;0.43;;
68196;SDS011;55019;49.382;11.358;2023-05-10T09:29:17;0.70;;;0.55;;
68196;SDS011;55019;49.382;11.358;2023-05-10T09:34:15;0.45;;;0.45;;
68196;SDS011;55019;49.382;11.358;2023-05-10T09:36:54;1.88;;;0.40;;
68196;SDS011;55019;49.382;11.358;2023-05-10T09:39:29;0.55;;;0.38;;
68196;SDS011;55019;49.382;11.358;2023-05-10T09:41:57;1.83;;;0.80;;
68196;SDS011;55019;49.382;11.358;2023-05-10T09:44:25;0.70;;;0.70;;
68196;SDS011;55019;49.382;11.358;2023-05-10T09:46:51;1.35;;;0.30;;
68196;SDS011;55019;49.382;11.358;2023-05-10T09:49:18;0.63;;;0.60;;
68196;SDS011;55019;49.382;11.358;2023-05-10T09:54:14;1.35;;;0.57;;
68196;SDS011;55019;49.382;11.358;2023-05-10T09:56:41;1.45;;;0.50;;
68196;SDS011;55019;49.382;11.358;2023-05-10T09:59:09;1.30;;;0.63;;
68196;SDS011;55019;49.382;11.358;2023-05-10T10:01:37;1.05;;;0.80;;
68196;SDS011;55019;49.382;11.358;2023-05-10T10:04:07;1.73;;;0.75;;
68196;SDS011;55019;49.382;11.358;2023-05-10T10:06:38;0.60;;;0.50;;
68196;SDS011;55019;49.382;11.358;2023-05-10T10:09:05;2.80;;;0.80;;
68196;SDS011;55019;49.382;11.358;2023-05-10T10:13:58;1.75;;;0.80;;
68196;SDS011;55019;49.382;11.358;2023-05-10T10:16:24;1.58;;;0.60;;
68196;SDS011;55019;49.382;11.358;2023-05-10T10:18:50;1.95;;;0.80;;
68196;SDS011;55019;49.382;11.358;2023-05-10T10:21:16;1.80;;;0.93;;
68196;SDS011;55019;49.382;11.358;2023-05-10T10:23:42;1.52;;;0.88;;
68196;SDS011;55019;49.382;11.358;2023-05-10T10:26:08;1.88;;;0.90;;
68196;SDS011;55019;49.382;11.358;2023-05-10T10:28:38;2.60;;;1.10;;
68196;SDS011;55019;49.382;11.358;2023-05-10T10:31:34;1.42;;;0.82;;
68196;SDS011;55019;49.382;11.358;2023-05-10T10:34:10;2.40;;;1.10;;
68196;SDS011;55019;49.382;11.358;2023-05-10T10:36:50;0.77;;;0.77;;
68196;SDS011;55019;49.382;11.358;2023-05-10T10:39:16;1.20;;;0.88;;
68196;SDS011;55019;49.382;11.358;2023-05-10T10:55:04;6.65;;;1.60;;
68196;SDS011;55019;49.382;11.358;2023-05-10T10:57:33;1.40;;;1.30;;
68196;SDS011;55019;49.382;11.358;2023-05-10T11:00:25;1.40;;;1.20;;
68196;SDS011;55019;49.382;11.358;2023-05-10T11:02:52;1.52;;;1.42;;
68196;SDS011;55019;49.382;11.358;2023-05-10T11:07:54;1.25;;;1.10;;
68196;SDS011;55019;49.382;11.358;2023-05-10T11:10:22;1.48;;;1.20;;
68196;SDS011;55019;49.382;11.358;2023-05-10T11:15:17;2.33;;;1.40;;
68196;SDS011;55019;49.382;11.358;2023-05-10T11:17:43;1.83;;;1.20;;
68196;SDS011;55019;49.382;11.358;2023-05-10T11:20:09;2.10;;;1.20;;
68196;SDS011;55019;49.382;11.358;2023-05-10T11:22:48;1.10;;;1.00;;
68196;SDS011;55019;49.382;11.358;2023-05-10T11:25:18;2.00;;;1.35;;
68196;SDS011;55019;49.382;11.358;2023-05-10T11:27:44;3.83;;;1.75;;
68196;SDS011;55019;49.382;11.358;2023-05-10T11:30:12;2.33;;;1.50;;
68196;SDS011;55019;49.382;11.358;2023-05-10T11:32:40;1.40;;;1.00;;
68196;SDS011;55019;49.382;11.358;2023-05-10T11:35:06;1.35;;;1.25;;
68196;SDS011;55019;49.382;11.358;2023-05-10T11:37:33;1.45;;;0.80;;
68196;SDS011;55019;49.382;11.358;2023-05-10T11:39:59;1.58;;;0.77;;
68196;SDS011;55019;49.382;11.358;2023-05-10T11:42:25;1.80;;;0.90;;
68196;SDS011;55019;49.382;11.358;2023-05-10T11:44:50;1.30;;;0.90;;
68196;SDS011;55019;49.382;11.358;2023-05-10T11:47:16;1.80;;;0.80;;
68196;SDS011;55019;49.382;11.358;2023-05-10T11:49:45;1.02;;;0.90;;
68196;SDS011;55019;49.382;11.358;2023-05-10T11:52:12;1.52;;;1.15;;
68196;SDS011;55019;49.382;11.358;2023-05-10T11:54:37;0.80;;;0.80;;
68196;SDS011;55019;49.382;11.358;2023-05-10T11:57:09;2.58;;;0.98;;
68196;SDS011;55019;49.382;11.358;2023-05-10T11:59:36;0.73;;;0.55;;
68196;SDS011;55019;49.382;11.358;2023-05-10T12:02:01;0.95;;;0.80;;
68196;SDS011;55019;49.382;11.358;2023-05-10T12:04:28;0.60;;;0.60;;
68196;SDS011;55019;49.382;11.358;2023-05-10T12:06:55;1.33;;;0.70;;
68196;SDS011;55019;49.382;11.358;2023-05-10T12:09:21;0.47;;;0.47;;
68196;SDS011;55019;49.382;11.358;2023-05-10T12:11:46;0.60;;;0.40;;
68196;SDS011;55019;49.382;11.358;2023-05-10T12:14:12;1.85;;;0.70;;
68196;SDS011;55019;49.382;11.358;2023-05-10T12:16:38;1.50;;;0.50;;
68196;SDS011;55019;49.382;11.358;2023-05-10T12:19:03;1.25;;;0.63;;
68196;SDS011;55019;49.382;11.358;2023-05-10T12:21:30;0.75;;;0.70;;
68196;SDS011;55019;49.382;11.358;2023-05-10T12:24:00;0.63;;;0.60;;
68196;SDS011;55019;49.382;11.358;2023-05-10T12:26:28;1.50;;;0.88;;
68196;SDS011;55019;49.382;11.358;2023-05-10T12:28:54;1.00;;;0.90;;
68196;SDS011;55019;49.382;11.358;2023-05-10T12:31:48;1.10;;;0.80;;
68196;SDS011;55019;49.382;11.358;2023-05-10T12:34:22;1.20;;;1.10;;
68196;SDS011;55019;49.382;11.358;2023-05-10T12:37:06;0.73;;;0.73;;
68196;SDS011;55019;49.382;11.358;2023-05-10T12:39:41;1.02;;;0.90;;
68196;SDS011;55019;49.382;11.358;2023-05-10T12:42:08;2.33;;;1.10;;
68196;SDS011;55019;49.382;11.358;2023-05-10T12:44:34;1.15;;;0.80;;
68196;SDS011;55019;49.382;11.358;2023-05-10T12:47:00;1.20;;;1.10;;
68196;SDS011;55019;49.382;11.358;2023-05-10T12:49:25;1.73;;;0.95;;
68196;SDS011;55019;49.382;11.358;2023-05-10T12:51:51;2.70;;;1.23;;
68196;SDS011;55019;49.382;11.358;2023-05-10T12:54:16;1.42;;;1.08;;
68196;SDS011;55019;49.382;11.358;2023-05-10T12:56:42;1.23;;;0.88;;
68196;SDS011;55019;49.382;11.358;2023-05-10T12:59:08;1.10;;;1.00;;
68196;SDS011;55019;49.382;11.358;2023-05-10T13:01:34;0.70;;;0.70;;
68196;SDS011;55019;49.382;11.358;2023-05-10T13:04:00;0.95;;;0.85;;
68196;SDS011;55019;49.382;11.358;2023-05-10T13:06:25;1.65;;;1.00;;
68196;SDS011;55019;49.382;11.358;2023-05-10T13:08:51;0.80;;;0.80;;
68196;SDS011;55019;49.382;11.358;2023-05-10T13:11:17;1.55;;;1.00;;
68196;SDS011;55019;49.382;11.358;2023-05-10T13:13:44;0.98;;;0.80;;
68196;SDS011;55019;49.382;11.358;2023-05-10T13:16:10;1.40;;;1.00;;
68196;SDS011;55019;49.382;11.358;2023-05-10T13:18:36;0.82;;;0.82;;
68196;SDS011;55019;49.382;11.358;2023-05-10T13:21:01;1.65;;;0.93;;
68196;SDS011;55019;49.382;11.358;2023-05-10T13:23:30;1.42;;;0.80;;
68196;SDS011;55019;49.382;11.358;2023-05-10T13:25:56;0.70;;;0.70;;
68196;SDS011;55019;49.382;11.358;2023-05-10T13:28:21;0.75;;;0.63;;
68196;SDS011;55019;49.382;11.358;2023-05-10T13:30:47;0.82;;;0.63;;
68196;SDS011;55019;49.382;11.358;2023-05-10T13:33:13;0.70;;;0.52;;
68196;SDS011;55019;49.382;11.358;2023-05-10T13:35:39;1.02;;;0.55;;
68196;SDS011;55019;49.382;11.358;2023-05-10T13:38:04;0.60;;;0.60;;
68196;SDS011;55019;49.382;11.358;2023-05-10T13:40:33;0.65;;;0.65;;
68196;SDS011;55019;49.382;11.358;2023-05-10T13:42:59;0.80;;;0.80;;
68196;SDS011;55019;49.382;11.358;2023-05-10T13:45:25;2.53;;;2.30;;
68196;SDS011;55019;49.382;11.358;2023-05-10T13:47:50;1.08;;;0.60;;
68196;SDS011;55019;49.382;11.358;2023-05-10T13:50:17;0.40;;;0.40;;
68196;SDS011;55019;49.382;11.358;2023-05-10T13:52:43;1.48;;;0.85;;
68196;SDS011;55019;49.382;11.358;2023-05-10T13:55:09;0.50;;;0.50;;
68196;SDS011;55019;49.382;11.358;2023-05-10T13:57:34;2.20;;;1.52;;
68196;SDS011;55019;49.382;11.358;2023-05-10T14:00:01;0.77;;;0.65;;
68196;SDS011;55019;49.382;11.358;2023-05-10T14:02:33;0.63;;;0.63;;
68196;SDS011;55019;49.382;11.358;2023-05-10T14:04:59;2.50;;;0.65;;
68196;SDS011;55019;49.382;11.358;2023-05-10T14:07:25;0.90;;;0.50;;
68196;SDS011;55019;49.382;11.358;2023-05-10T14:09:51;0.45;;;0.45;;
68196;SDS011;55019;49.382;11.358;2023-05-10T14:12:21;0.65;;;0.40;;
68196;SDS011;55019;49.382;11.358;2023-05-10T14:14:47;1.33;;;0.43;;
68196;SDS011;55019;49.382;11.358;2023-05-10T14:17:12;3.30;;;2.22;;
68196;SDS011;55019;49.382;11.358;2023-05-10T14:19:38;1.00;;;0.57;;
68196;SDS011;55019;49.382;11.358;2023-05-10T14:22:04;2.80;;;1.92;;
68196;SDS011;55019;49.382;11.358;2023-05-10T14:24:30;1.92;;;1.42;;
68196;SDS011;55019;49.382;11.358;2023-05-10T14:26:56;2.10;;;1.90;;
68196;SDS011;55019;49.382;11.358;2023-05-10T14:29:21;4.38;;;1.83;;
68196;SDS011;55019;49.382;11.358;2023-05-10T14:31:47;1.90;;;1.20;;
68196;SDS011;55019;49.382;11.358;2023-05-10T14:34:13;1.95;;;1.75;;
68196;SDS011;55019;49.382;11.358;2023-05-10T14:36:47;1.77;;;1.50;;
68196;SDS011;55019;49.382;11.358;2023-05-10T14:39:13;1.58;;;1.48;;
68196;SDS011;55019;49.382;11.358;2023-05-10T14:41:39;1.40;;;0.73;;
68196;SDS011;55019;49.382;11.358;2023-05-10T14:44:06;2.35;;;1.50;;
68196;SDS011;55019;49.382;11.358;2023-05-10T14:46:32;3.45;;;1.80;;
68196;SDS011;55019;49.382;11.358;2023-05-10T14:51:25;1.52;;;1.42;;
68196;SDS011;55019;49.382;11.358;2023-05-10T14:53:50;1.58;;;0.50;;
68196;SDS011;55019;49.382;11.358;2023-05-10T14:56:16;1.30;;;1.15;;
68196;SDS011;55019;49.382;11.358;2023-05-10T14:58:42;1.92;;;0.60;;
68196;SDS011;55019;49.382;11.358;2023-05-10T15:01:07;0.93;;;0.85;;
68196;SDS011;55019;49.382;11.358;2023-05-10T15:03:33;1.23;;;0.40;;
68196;SDS011;55019;49.382;11.358;2023-05-10T15:05:59;0.90;;;0.60;;
68196;SDS011;55019;49.382;11.358;2023-05-10T15:08:24;0.70;;;0.43;;
68196;SDS011;55019;49.382;11.358;2023-05-10T15:10:50;1.00;;;0.50;;
68196;SDS011;55019;49.382;11.358;2023-05-10T15:13:18;0.77;;;0.63;;
68196;SDS011;55019;49.382;11.358;2023-05-10T15:15:43;0.55;;;0.55;;
68196;SDS011;55019;49.382;11.358;2023-05-10T15:18:09;0.88;;;0.80;;
68196;SDS011;55019;49.382;11.358;2023-05-10T15:20:35;1.55;;;0.70;;
68196;SDS011;55019;49.382;11.358;2023-05-10T15:23:01;2.10;;;0.80;;
68196;SDS011;55019;49.382;11.358;2023-05-10T15:25:26;1.00;;;0.73;;
68196;SDS011;55019;49.382;11.358;2023-05-10T15:27:54;2.08;;;1.20;;